KHMT/HMT METAR and TAF weather

Enter ICAO airport designator
Station Type Date Time Source
KHMT METAR 2021/05/13 19:35 UTC NOAA

KHMT 131935Z AUTO 21009KT 10SM CLR 26/12 A3003 RMK AO2 T02620121


Station Type Date Time Source
KHMT Decoded METAR 2021/05/13 19:35 UTC NOAA

Station name not available
May 13, 2021 - 03:35 PM EDT / 2021.05.13 1935 UTC
Wind: from the SSW (210 degrees) at 10 MPH (9 KT):0
Visibility: 10 mile(s):0
Sky conditions: clear
Temperature: 79.2 F (26.2 C)
Dew Point: 53.8 F (12.1 C)
Relative Humidity: 41%
Pressure (altimeter): 30.03 in. Hg (1016 hPa)
ob: KHMT 131935Z AUTO 21009KT 10SM CLR 26/12 A3003 RMK AO2 T02620121
cycle: 19

Station Type Date Time Source
KHMT TAF UTC NOAA

Error!

Example: see airport list